Terminal Aerodrome Forecast
Issued by NWS Central Illinois

Home | Current Version | Previous Version | Text Only | Print | Product List | Glossary On
Versions: 1 2 3 4 5 6 7 8 9 10 11 12 13 14 15 16 17 18 19 20 21
000
FTUS43 KILX 221700 RRA
TAFPIA
TAF
KPIA 221741Z 2218/2318 18008KT P6SM VCSH SCT035 BKN120
     FM222200 21010KT P6SM SCT035 BKN120
     FM230600 24005KT 5SM -RA BR VCTS BKN060CB
     FM231400 21008KT P6SM BKN120=

USA.gov is the U.S. government's official web portal to all federal, state and local government web resources and services.